Welcome to the New NWS' Forecast!
Most changes are behind the scenes, but click here for differences you might notice.

Terminal Aerodrome Forecast (TAF)

Issued by National Weather Service (NWS)

                            
213 
FTUS42 KKEY 170555 AAA
TAFEYW
TAF AMD
KEYW 170555Z 1706/1806 10012KT P6SM SCT020
     FM171800 12012KT P6SM VCSH SCT025 SCT040
     FM180300 09008KT P6SM FEW025=